| Time | Avg. Air Temp | Dew Point | Avg. Rel Humidity | Avg. 2 Min Wind Speed | Max Gust Velocity | MGV Time | MGV Direction | Avg. Spot Wind Velocity |
|---|---|---|---|---|---|---|---|---|
| 2026-09-05 19:35:00 | 3° C | 0° C | 80% | 10 km/h | 15 km/h | 19:31:00 | SE | 10 km/h |
| 18:35:00 | 4° C | 4° C | 100% | 13 km/h | 16 km/h | 18:32:00 | N | 14 km/h |
| 17:35:00 | 4° C | 1° C | 76% | 3 km/h | 6 km/h | 17:32:00 | N | 4 km/h |
| 16:35:00 | 8° C | 3° C | 68% | 5 km/h | 11 km/h | 16:33:00 | SW | 6 km/h |
| 15:35:00 | 7° C | -0° C | 62% | 13 km/h | 20 km/h | 15:34:00 | SE | 11 km/h |
| 14:35:00 | 5° C | -1° C | 70% | 16 km/h | 24 km/h | 14:32:00 | SE | 16 km/h |
| 13:35:00 | 6° C | -1° C | 72% | 10 km/h | 22 km/h | 13:33:00 | S | 11 km/h |
| 12:35:00 | 5° C | 4° C | 90% | 9 km/h | 13 km/h | 12:33:00 | SW | 6 km/h |
| 11:35:00 | 4° C | 3° C | 96% | 1 km/h | 4 km/h | 11:33:00 | NE | 2 km/h |
| 10:35:00 | 3° C | 3° C | 94% | 3 km/h | 10 km/h | 10:33:00 | E | 6 km/h |
| 09:35:00 | 3° C | 1° C | 82% | 5 km/h | 15 km/h | 09:31:00 | S | 7 km/h |
| 08:35:00 | 3° C | 1° C | 90% | 6 km/h | 12 km/h | 08:34:00 | E | 7 km/h |
| 07:35:00 | 2° C | -1° C | 78% | 12 km/h | 17 km/h | 07:33:00 | SE | 14 km/h |
| 06:35:00 | 2° C | -0° C | 85% | 12 km/h | 18 km/h | 06:32:00 | SE | 13 km/h |
| 05:35:00 | 2° C | -1° C | 85% | 16 km/h | 23 km/h | 05:32:00 | E | 17 km/h |
| 04:35:00 | 1° C | -0° C | 92% | 22 km/h | 25 km/h | 04:32:00 | NE | 22 km/h |
| 03:35:00 | 2° C | -1° C | 82% | 11 km/h | 14 km/h | 03:35:00 | E | 11 km/h |
| 02:35:00 | 2° C | -1° C | 84% | 8 km/h | 12 km/h | 02:32:00 | SE | 9 km/h |
| 01:35:00 | 2° C | -1° C | 82% | 15 km/h | 23 km/h | 01:32:00 | E | 15 km/h |
| 00:35:00 | 1° C | 1° C | 96% | 12 km/h | 17 km/h | 00:35:00 | SE | 12 km/h |
| 23:35:00 | 1° C | 1° C | 100% | 12 km/h | 16 km/h | 23:35:00 | SE | 10 km/h |
| 22:35:00 | 1° C | 1° C | 100% | 17 km/h | 19 km/h | 22:35:00 | SE | 15 km/h |
| 21:35:00 | 0° C | 1° C | 100% | 9 km/h | 23 km/h | 21:31:00 | SE | 11 km/h |
| 20:35:00 | 1° C | 1° C | 100% | 12 km/h | 17 km/h | 20:31:00 | SE | 12 km/h |
Subpeak Weather
| Time | Avg. Air Temp | Dew Point | Avg. Rel Humidity | Avg. 2 Min Wind Speed | Max Gust Velocity | MGV Time | MGV Direction | Avg. Spot Wind Velocity |
|---|---|---|---|---|---|---|---|---|
| 2026-09-05 19:35:00 | 3° C | 0° C | 80% | 10 km/h | 15 km/h | 19:31:00 | SE | 10 km/h |
| 19:30:00 | 3° C | -0° C | 77% | 10 km/h | 15 km/h | 19:30:00 | SE | 8 km/h |
| 19:25:00 | 4° C | -1° C | 72% | 11 km/h | 15 km/h | 19:23:00 | S | 12 km/h |
| 19:20:00 | 4° C | -1° C | 73% | 12 km/h | 14 km/h | 19:18:00 | SE | 11 km/h |
| 19:15:00 | 3° C | -1° C | 74% | 12 km/h | 17 km/h | 19:13:00 | SE | 13 km/h |
| 19:10:00 | 3° C | -1° C | 78% | 15 km/h | 18 km/h | 19:08:00 | E | 16 km/h |
| 19:05:00 | 3° C | 0° C | 84% | 13 km/h | 18 km/h | 19:05:00 | E | 11 km/h |
| 19:00:00 | 3° C | 1° C | 88% | 16 km/h | 18 km/h | 18:58:00 | E | 13 km/h |
| 18:55:00 | 3° C | 2° C | 90% | 1 km/h | 5 km/h | 18:55:00 | SE | 0 km/h |
| 18:50:00 | 3° C | 2° C | 95% | 3 km/h | 7 km/h | 18:47:00 | N | 3 km/h |
| 18:45:00 | 3° C | 3° C | 100% | 7 km/h | 12 km/h | 18:45:00 | E | 6 km/h |
| 18:40:00 | 3° C | 3° C | 100% | 4 km/h | 11 km/h | 18:36:00 | NE | 4 km/h |
| 18:35:00 | 4° C | 4° C | 100% | 13 km/h | 16 km/h | 18:32:00 | N | 14 km/h |




